Time;durP1;ratioP1;P1;durP2;ratioP2;P2;SDS_P1;SDS_P2;PMS_P1;PMS_P2;Temp;Humidity;BMP_temperature;BMP_pressure;BME280_temperature;BME280_humidity;BME280_pressure;Samples;Min_cycle;Max_cycle;Signal;HPM_P1;HPM_P2
2023/08/23 00:00:54;;;;;;;;;;;17.00;67.60;;;;;;4185003;28;20416;-83
2023/08/23 00:02:55;;;;;;;;;;;17.10;67.40;;;;;;4186798;28;19921;-84
2023/08/23 00:05:16;;;;;;;;;;;17.10;67.50;;;;;;4184482;28;19983;-84
2023/08/23 00:07:33;;;;;;;;;;;17.10;67.40;;;;;;4184896;28;20597;-83
2023/08/23 00:09:53;;;;;;;;;;;17.00;67.80;;;;;;4181765;28;19919;-82
2023/08/23 00:12:15;;;;;;;;;;;17.10;67.80;;;;;;4181608;28;19924;-83
2023/08/23 00:14:35;;;;;;;;;;;17.00;67.90;;;;;;4183431;28;19969;-83
2023/08/23 00:16:56;;;;;;;;;;;17.10;67.80;;;;;;4186330;28;19918;-83
2023/08/23 00:19:16;;;;;;;;;;;17.00;67.90;;;;;;4186950;28;20016;-83
2023/08/23 00:21:37;;;;;;;;;;;16.90;67.90;;;;;;4189669;28;19948;-83
2023/08/23 00:23:57;;;;;;;;;;;16.90;67.60;;;;;;4181533;28;19952;-83
2023/08/23 00:25:58;;;;;;;;;;;16.90;67.60;;;;;;4185731;28;20313;-82
2023/08/23 00:28:04;;;;;;;;;;;16.90;67.90;;;;;;4186156;28;19920;-83
2023/08/23 00:30:24;;;;;;;;;;;16.90;67.90;;;;;;4187438;28;19928;-83
2023/08/23 00:32:25;;;;;;;;;;;16.90;67.90;;;;;;4187846;28;19916;-83
2023/08/23 00:34:45;;;;;;;;;;;16.80;68.10;;;;;;4185318;28;19921;-83
2023/08/23 00:37:06;;;;;;;;;;;16.90;68.10;;;;;;4187457;28;19923;-83
2023/08/23 00:39:08;;;;;;;;;;;16.80;68.30;;;;;;4182862;28;19952;-83
2023/08/23 00:41:29;;;;;;;;;;;16.80;69.00;;;;;;4188358;28;19959;-82
2023/08/23 00:43:49;;;;;;;;;;;16.80;68.70;;;;;;4187375;28;19908;-83
2023/08/23 00:46:10;;;;;;;;;;;16.80;69.20;;;;;;4186451;28;20148;-84
2023/08/23 00:48:31;;;;;;;;;;;16.80;69.30;;;;;;4187473;28;19963;-83
2023/08/23 00:50:52;;;;;;;;;;;16.80;69.00;;;;;;4189410;28;19913;-82
2023/08/23 00:53:13;;;;;;;;;;;16.80;69.00;;;;;;4186253;28;19917;-83
2023/08/23 00:55:35;;;;;;;;;;;16.70;68.90;;;;;;4188416;28;19919;-83
2023/08/23 00:57:35;;;;;;;;;;;16.70;69.10;;;;;;4185958;28;19923;-83
2023/08/23 00:59:36;;;;;;;;;;;16.70;69.50;;;;;;4190571;28;19917;-82
2023/08/23 01:01:37;;;;;;;;;;;16.60;71.00;;;;;;4185651;28;19919;-83
2023/08/23 01:03:37;;;;;;;;;;;16.70;69.90;;;;;;4184395;28;20305;-83
2023/08/23 01:05:42;;;;;;;;;;;16.60;69.60;;;;;;4187198;28;19956;-84
2023/08/23 01:08:07;;;;;;;;;;;16.60;69.40;;;;;;4184743;28;19961;-83
2023/08/23 01:10:07;;;;;;;;;;;16.60;69.30;;;;;;4188131;28;20692;-83
2023/08/23 01:12:19;;;;;;;;;;;16.60;70.40;;;;;;4184691;28;19913;-82
2023/08/23 01:14:39;;;;;;;;;;;16.60;70.60;;;;;;4193628;28;20002;-83
2023/08/23 01:17:00;;;;;;;;;;;16.60;70.60;;;;;;4186950;28;19939;-82
2023/08/23 01:19:33;;;;;;;;;;;16.50;70.20;;;;;;4184819;28;19960;-83
2023/08/23 01:21:55;;;;;;;;;;;16.60;70.10;;;;;;4186581;28;19922;-83
2023/08/23 01:24:16;;;;;;;;;;;16.60;70.10;;;;;;4183632;28;19962;-82
2023/08/23 01:26:40;;;;;;;;;;;16.60;70.90;;;;;;4185281;28;19938;-83
2023/08/23 01:29:00;;;;;;;;;;;16.60;71.20;;;;;;4199841;28;20180;-84
2023/08/23 01:31:22;;;;;;;;;;;16.60;70.80;;;;;;4204454;28;19913;-83
2023/08/23 01:33:33;;;;;;;;;;;16.60;71.50;;;;;;4190005;28;19916;-82
2023/08/23 01:35:42;;;;;;;;;;;16.60;72.40;;;;;;4185228;28;19947;-83
2023/08/23 01:37:48;;;;;;;;;;;16.60;72.30;;;;;;4188993;28;19913;-82
2023/08/23 01:40:09;;;;;;;;;;;16.60;71.70;;;;;;4185246;28;19916;-83
2023/08/23 01:42:30;;;;;;;;;;;16.60;71.40;;;;;;4190094;28;19917;-83
2023/08/23 01:44:37;;;;;;;;;;;16.60;71.40;;;;;;4192640;28;20054;-83
2023/08/23 01:46:58;;;;;;;;;;;16.60;71.30;;;;;;4185586;28;19923;-82
2023/08/23 01:49:18;;;;;;;;;;;16.70;71.50;;;;;;4184595;28;19924;-83
2023/08/23 01:51:39;;;;;;;;;;;16.70;71.50;;;;;;4183394;28;19919;-83
2023/08/23 01:53:59;;;;;;;;;;;16.70;72.40;;;;;;4185810;28;20050;-82
2023/08/23 01:56:20;;;;;;;;;;;16.70;72.30;;;;;;4185290;28;19913;-83
2023/08/23 01:58:41;;;;;;;;;;;16.70;73.00;;;;;;4186448;28;19929;-83
2023/08/23 02:01:01;;;;;;;;;;;16.80;73.20;;;;;;4183963;28;19920;-82
2023/08/23 02:03:22;;;;;;;;;;;16.70;73.40;;;;;;4188397;28;19917;-82
2023/08/23 02:05:42;;;;;;;;;;;16.70;72.70;;;;;;4184241;28;19913;-83
2023/08/23 02:07:43;;;;;;;;;;;16.80;72.50;;;;;;4183652;28;19939;-83
2023/08/23 02:09:43;;;;;;;;;;;16.70;72.30;;;;;;4183460;28;19987;-83
2023/08/23 02:12:04;;;;;;;;;;;16.80;72.40;;;;;;4185773;28;19927;-83
2023/08/23 02:14:24;;;;;;;;;;;16.80;72.50;;;;;;4186637;28;19928;-83
2023/08/23 02:16:45;;;;;;;;;;;16.80;72.30;;;;;;4183475;28;19923;-83
2023/08/23 02:19:06;;;;;;;;;;;16.80;72.40;;;;;;4185399;28;19928;-84
2023/08/23 02:21:26;;;;;;;;;;;16.80;72.80;;;;;;4185543;28;20003;-83
2023/08/23 02:23:47;;;;;;;;;;;16.80;73.00;;;;;;4188052;28;19991;-83
2023/08/23 02:26:07;;;;;;;;;;;16.80;72.70;;;;;;4186027;28;20021;-82
2023/08/23 02:28:28;;;;;;;;;;;16.80;72.50;;;;;;4187299;28;19960;-83
2023/08/23 02:30:30;;;;;;;;;;;16.80;73.40;;;;;;4183789;28;19924;-83
2023/08/23 02:32:33;;;;;;;;;;;16.80;73.10;;;;;;4171714;28;20398;-82
2023/08/23 02:34:39;;;;;;;;;;;16.70;73.00;;;;;;4187943;28;19927;-83
2023/08/23 02:37:00;;;;;;;;;;;16.80;72.80;;;;;;4185144;28;20007;-82
2023/08/23 02:39:20;;;;;;;;;;;16.80;73.30;;;;;;4185970;28;19916;-83
2023/08/23 02:41:41;;;;;;;;;;;16.70;73.00;;;;;;4182640;28;20011;-82
2023/08/23 02:44:02;;;;;;;;;;;16.70;73.20;;;;;;4188024;28;19939;-82
2023/08/23 02:46:23;;;;;;;;;;;16.70;73.00;;;;;;4185720;28;19912;-84
2023/08/23 02:48:43;;;;;;;;;;;16.70;73.30;;;;;;4189895;28;19916;-83
2023/08/23 02:51:04;;;;;;;;;;;16.70;73.80;;;;;;4185403;28;19958;-83
2023/08/23 02:53:24;;;;;;;;;;;16.80;73.60;;;;;;4187018;28;19927;-82
2023/08/23 02:55:45;;;;;;;;;;;16.70;73.10;;;;;;4184651;28;19916;-83
2023/08/23 02:58:06;;;;;;;;;;;16.70;73.10;;;;;;4186186;28;20011;-83
2023/08/23 03:00:26;;;;;;;;;;;16.70;73.10;;;;;;4178959;28;19959;-82
2023/08/23 03:02:47;;;;;;;;;;;16.70;73.60;;;;;;4180959;28;19955;-83
2023/08/23 03:05:07;;;;;;;;;;;16.70;73.50;;;;;;4184233;28;19920;-83
2023/08/23 03:07:28;;;;;;;;;;;16.70;73.50;;;;;;4188207;28;19924;-82
2023/08/23 03:09:29;;;;;;;;;;;16.70;73.30;;;;;;4183944;28;19912;-82
2023/08/23 03:11:29;;;;;;;;;;;16.70;73.20;;;;;;4187805;28;20402;-82
2023/08/23 03:13:30;;;;;;;;;;;16.70;73.20;;;;;;4184026;28;19923;-83
2023/08/23 03:15:31;;;;;;;;;;;16.70;73.40;;;;;;4185655;28;19954;-83
2023/08/23 03:17:31;;;;;;;;;;;16.70;73.20;;;;;;4182014;28;19913;-83
2023/08/23 03:19:32;;;;;;;;;;;16.70;73.70;;;;;;4186605;28;19924;-83
2023/08/23 03:21:33;;;;;;;;;;;16.80;73.50;;;;;;4185375;28;19921;-83
2023/08/23 03:23:33;;;;;;;;;;;16.70;73.90;;;;;;4182454;28;19990;-84
2023/08/23 03:25:34;;;;;;;;;;;16.70;73.90;;;;;;4185150;28;19920;-83
2023/08/23 03:27:34;;;;;;;;;;;16.60;73.60;;;;;;4185859;28;19970;-83
2023/08/23 03:29:35;;;;;;;;;;;16.60;73.40;;;;;;4184547;28;19962;-83
2023/08/23 03:31:35;;;;;;;;;;;16.60;73.40;;;;;;4188291;28;19913;-82
2023/08/23 03:33:36;;;;;;;;;;;16.70;73.40;;;;;;4185196;28;19920;-83
2023/08/23 03:35:36;;;;;;;;;;;16.70;73.50;;;;;;4185832;28;19912;-83
2023/08/23 03:37:37;;;;;;;;;;;16.70;73.50;;;;;;4184221;28;19913;-83
2023/08/23 03:39:37;;;;;;;;;;;16.60;73.70;;;;;;4185212;28;19919;-83
2023/08/23 03:41:38;;;;;;;;;;;16.60;73.10;;;;;;4187372;28;19916;-83
2023/08/23 03:43:38;;;;;;;;;;;16.60;72.50;;;;;;4184707;28;19913;-85
2023/08/23 03:45:46;;;;;;;;;;;16.60;72.10;;;;;;4185192;28;19920;-83
2023/08/23 03:47:47;;;;;;;;;;;16.60;71.40;;;;;;4186699;28;19913;-83
2023/08/23 03:49:48;;;;;;;;;;;16.60;71.50;;;;;;4185879;28;19917;-83
2023/08/23 03:51:48;;;;;;;;;;;16.60;71.20;;;;;;4185913;28;19913;-82
2023/08/23 03:53:49;;;;;;;;;;;16.60;71.60;;;;;;4188202;28;20492;-83
2023/08/23 03:55:55;;;;;;;;;;;16.60;72.10;;;;;;4199222;28;20409;-84
2023/08/23 03:57:58;;;;;;;;;;;16.60;72.50;;;;;;4186079;28;19917;-82
2023/08/23 04:00:00;;;;;;;;;;;16.50;72.60;;;;;;4190294;28;20689;-84
2023/08/23 04:02:03;;;;;;;;;;;16.50;72.50;;;;;;4191068;28;19912;-83
2023/08/23 04:04:05;;;;;;;;;;;16.50;72.60;;;;;;4186060;28;19916;-83
2023/08/23 04:06:14;;;;;;;;;;;16.50;72.90;;;;;;4183240;28;20301;-82
2023/08/23 04:08:35;;;;;;;;;;;16.50;72.90;;;;;;4188957;28;19924;-82
2023/08/23 04:10:56;;;;;;;;;;;16.50;73.40;;;;;;4189403;28;19942;-84
2023/08/23 04:13:16;;;;;;;;;;;16.40;73.20;;;;;;4185893;28;20325;-84
2023/08/23 04:15:37;;;;;;;;;;;16.40;73.00;;;;;;4206462;28;19917;-83
2023/08/23 04:17:57;;;;;;;;;;;16.40;73.00;;;;;;4207101;28;19931;-83
2023/08/23 04:20:18;;;;;;;;;;;16.30;72.80;;;;;;4209383;28;19927;-83
2023/08/23 04:22:38;;;;;;;;;;;16.40;72.80;;;;;;4208554;28;19940;-84
2023/08/23 04:24:59;;;;;;;;;;;16.30;72.80;;;;;;4197724;28;20233;-83
2023/08/23 04:27:20;;;;;;;;;;;16.30;73.00;;;;;;4190027;28;19952;-84
2023/08/23 04:29:34;;;;;;;;;;;16.20;72.70;;;;;;4188681;28;19920;-83
2023/08/23 04:31:54;;;;;;;;;;;16.20;72.90;;;;;;4189698;28;19916;-84
2023/08/23 04:34:15;;;;;;;;;;;16.20;72.80;;;;;;4185135;28;19916;-83
2023/08/23 04:36:36;;;;;;;;;;;16.20;72.80;;;;;;4187198;28;19969;-83
2023/08/23 04:38:56;;;;;;;;;;;16.10;72.70;;;;;;4185761;28;19958;-84
2023/08/23 04:41:17;;;;;;;;;;;16.20;72.90;;;;;;4189476;28;19923;-83
2023/08/23 04:43:38;;;;;;;;;;;16.10;72.80;;;;;;4192057;28;19920;-83
2023/08/23 04:45:58;;;;;;;;;;;16.10;73.20;;;;;;4191433;28;19916;-84
2023/08/23 04:48:19;;;;;;;;;;;16.10;73.30;;;;;;4191243;28;19916;-84
2023/08/23 04:50:35;;;;;;;;;;;16.10;73.20;;;;;;4192147;28;19965;-83
2023/08/23 04:52:56;;;;;;;;;;;16.10;73.40;;;;;;4189750;28;20085;-83
2023/08/23 04:55:16;;;;;;;;;;;16.00;73.30;;;;;;4190497;28;19970;-84
2023/08/23 04:57:37;;;;;;;;;;;16.00;73.10;;;;;;4186615;28;19916;-83
2023/08/23 04:59:57;;;;;;;;;;;16.00;73.10;;;;;;4186521;28;19916;-83
2023/08/23 05:02:18;;;;;;;;;;;15.90;73.30;;;;;;4187973;28;19916;-84
2023/08/23 05:04:38;;;;;;;;;;;16.00;73.30;;;;;;4185295;28;19919;-84
2023/08/23 05:06:59;;;;;;;;;;;16.00;74.00;;;;;;4189184;28;19913;-83
2023/08/23 05:09:00;;;;;;;;;;;16.00;74.40;;;;;;4187301;28;19951;-83
2023/08/23 05:11:00;;;;;;;;;;;16.00;75.00;;;;;;4186499;28;19916;-83
2023/08/23 05:13:01;;;;;;;;;;;16.00;74.90;;;;;;4187764;28;19931;-83
2023/08/23 05:15:02;;;;;;;;;;;16.10;74.70;;;;;;4184749;28;19917;-83
2023/08/23 05:17:02;;;;;;;;;;;16.00;74.40;;;;;;4190964;28;19961;-84
2023/08/23 05:19:03;;;;;;;;;;;16.00;74.80;;;;;;4186214;28;19916;-83
2023/08/23 05:21:04;;;;;;;;;;;16.00;74.70;;;;;;4185641;28;19916;-83
2023/08/23 05:23:04;;;;;;;;;;;16.00;75.10;;;;;;4187411;28;20008;-83
2023/08/23 05:25:05;;;;;;;;;;;16.00;75.40;;;;;;4188647;28;19923;-83
2023/08/23 05:27:06;;;;;;;;;;;16.00;75.60;;;;;;4186752;28;20429;-82
2023/08/23 05:29:06;;;;;;;;;;;16.10;75.60;;;;;;4187660;28;19912;-83
2023/08/23 05:31:07;;;;;;;;;;;16.10;75.70;;;;;;4187992;28;19935;-83
2023/08/23 05:33:08;;;;;;;;;;;16.20;75.80;;;;;;4186234;28;19916;-83
2023/08/23 05:35:08;;;;;;;;;;;16.20;75.70;;;;;;4198922;28;19916;-85
2023/08/23 05:37:09;;;;;;;;;;;16.20;75.70;;;;;;4191122;28;19916;-84
2023/08/23 05:39:10;;;;;;;;;;;16.30;76.00;;;;;;4186119;28;19969;-84
2023/08/23 05:41:10;;;;;;;;;;;16.40;76.60;;;;;;4185651;28;19917;-84
2023/08/23 05:43:11;;;;;;;;;;;16.40;76.90;;;;;;4184447;28;20445;-83
2023/08/23 05:45:12;;;;;;;;;;;16.50;77.30;;;;;;4183021;28;19924;-83
2023/08/23 05:47:12;;;;;;;;;;;16.50;77.30;;;;;;4189456;28;20009;-83
2023/08/23 05:49:13;;;;;;;;;;;16.60;77.60;;;;;;4186060;28;20404;-83
2023/08/23 05:51:13;;;;;;;;;;;16.60;77.80;;;;;;4188978;28;19920;-83
2023/08/23 05:53:19;;;;;;;;;;;16.80;77.90;;;;;;4185706;28;19924;-84
2023/08/23 05:55:19;;;;;;;;;;;16.80;78.10;;;;;;4186082;28;19912;-84
2023/08/23 05:57:20;;;;;;;;;;;16.80;78.30;;;;;;4184394;28;19947;-83
2023/08/23 05:59:20;;;;;;;;;;;16.90;78.60;;;;;;4183785;28;19921;-83
2023/08/23 06:01:21;;;;;;;;;;;17.00;78.20;;;;;;4183225;28;19920;-83
2023/08/23 06:03:22;;;;;;;;;;;17.00;78.10;;;;;;4185684;28;19917;-83
2023/08/23 06:05:22;;;;;;;;;;;17.10;79.40;;;;;;4186111;28;19935;-84
2023/08/23 06:07:23;;;;;;;;;;;17.10;79.70;;;;;;4184131;28;19912;-84
2023/08/23 06:09:43;;;;;;;;;;;17.30;79.40;;;;;;4181218;28;19920;-83
2023/08/23 06:12:04;;;;;;;;;;;17.30;78.60;;;;;;4181852;28;19913;-83
2023/08/23 06:14:25;;;;;;;;;;;17.30;78.40;;;;;;4181141;28;19964;-83
2023/08/23 06:16:45;;;;;;;;;;;17.40;78.60;;;;;;4182153;28;20436;-83
2023/08/23 06:18:46;;;;;;;;;;;17.50;79.70;;;;;;4183877;28;19924;-83
2023/08/23 06:21:07;;;;;;;;;;;17.60;78.10;;;;;;4185901;28;19920;-83
2023/08/23 06:23:28;;;;;;;;;;;17.60;79.10;;;;;;4184716;28;19923;-83
2023/08/23 06:25:49;;;;;;;;;;;17.70;78.30;;;;;;4190285;28;19946;-84
2023/08/23 06:28:09;;;;;;;;;;;17.70;79.90;;;;;;4189264;28;19927;-84
2023/08/23 06:30:18;;;;;;;;;;;17.80;79.40;;;;;;4190701;28;19970;-83
2023/08/23 06:32:39;;;;;;;;;;;17.90;78.80;;;;;;4183682;28;20003;-84
2023/08/23 06:35:00;;;;;;;;;;;18.00;78.90;;;;;;4183208;28;19948;-83
2023/08/23 06:37:21;;;;;;;;;;;18.10;79.20;;;;;;4182563;28;19924;-83
2023/08/23 06:39:42;;;;;;;;;;;18.20;79.60;;;;;;4183129;28;20537;-83
2023/08/23 06:42:02;;;;;;;;;;;18.30;79.70;;;;;;4185932;28;20370;-83
2023/08/23 06:44:23;;;;;;;;;;;18.50;78.70;;;;;;4183397;28;19916;-84
2023/08/23 06:46:43;;;;;;;;;;;18.50;78.90;;;;;;4187053;28;20382;-82
2023/08/23 06:49:04;;;;;;;;;;;18.50;77.30;;;;;;4184058;28;20481;-84
2023/08/23 06:51:27;;;;;;;;;;;18.70;77.00;;;;;;4186510;28;19995;-83
2023/08/23 06:53:49;;;;;;;;;;;18.80;77.40;;;;;;4184648;28;20389;-84
2023/08/23 06:56:11;;;;;;;;;;;18.90;77.90;;;;;;4184452;28;20545;-84
2023/08/23 06:58:32;;;;;;;;;;;19.00;77.60;;;;;;4183782;28;20154;-83
2023/08/23 07:00:54;;;;;;;;;;;19.10;76.50;;;;;;4188745;28;20378;-84
2023/08/23 07:03:15;;;;;;;;;;;19.10;76.90;;;;;;4186285;28;19919;-83
2023/08/23 07:05:36;;;;;;;;;;;19.10;76.30;;;;;;4184560;28;20382;-83
2023/08/23 07:07:56;;;;;;;;;;;19.10;75.60;;;;;;4186496;28;20390;-83
2023/08/23 07:10:17;;;;;;;;;;;19.20;76.00;;;;;;4187625;28;20539;-85
2023/08/23 07:12:32;;;;;;;;;;;19.20;75.80;;;;;;4186474;28;20010;-83
2023/08/23 07:14:32;;;;;;;;;;;19.30;75.00;;;;;;4201381;28;19912;-87
2023/08/23 07:16:33;;;;;;;;;;;19.30;75.50;;;;;;4196952;28;19944;-83
2023/08/23 07:18:34;;;;;;;;;;;19.40;74.80;;;;;;4184152;28;19921;-83
2023/08/23 07:20:34;;;;;;;;;;;19.40;74.10;;;;;;4185236;28;19912;-83
2023/08/23 07:22:35;;;;;;;;;;;19.50;74.20;;;;;;4185864;28;19943;-84
2023/08/23 07:24:36;;;;;;;;;;;19.50;74.20;;;;;;4187764;28;19952;-83
2023/08/23 07:26:36;;;;;;;;;;;19.60;74.80;;;;;;4188763;28;19917;-84
2023/08/23 07:28:37;;;;;;;;;;;19.70;74.00;;;;;;4202710;28;19994;-83
2023/08/23 07:30:38;;;;;;;;;;;19.70;74.10;;;;;;4190770;28;19913;-85
2023/08/23 07:32:40;;;;;;;;;;;19.80;73.80;;;;;;4194433;28;19943;-83
2023/08/23 07:34:46;;;;;;;;;;;19.80;73.20;;;;;;4174253;28;19917;-84
2023/08/23 07:37:07;;;;;;;;;;;19.90;73.00;;;;;;4189146;28;19935;-84
2023/08/23 07:39:27;;;;;;;;;;;19.90;72.90;;;;;;4188217;28;19924;-85
2023/08/23 07:41:30;;;;;;;;;;;20.00;73.00;;;;;;4189526;28;19916;-85
2023/08/23 07:43:50;;;;;;;;;;;20.10;72.90;;;;;;4186774;28;20366;-85
2023/08/23 07:46:11;;;;;;;;;;;20.10;73.00;;;;;;4188291;28;20657;-84
2023/08/23 07:48:31;;;;;;;;;;;20.20;72.80;;;;;;4187091;28;20341;-84
2023/08/23 07:50:53;;;;;;;;;;;20.20;72.40;;;;;;4187997;28;19962;-84
2023/08/23 07:53:13;;;;;;;;;;;20.30;72.00;;;;;;4188878;28;20475;-85
2023/08/23 07:55:34;;;;;;;;;;;20.30;71.60;;;;;;4186847;28;20522;-85
2023/08/23 07:57:54;;;;;;;;;;;20.40;71.30;;;;;;4187224;28;21728;-85
2023/08/23 08:00:15;;;;;;;;;;;20.40;70.90;;;;;;4186408;28;20333;-84
2023/08/23 08:02:35;;;;;;;;;;;20.40;69.10;;;;;;4186030;28;20386;-84
2023/08/23 08:04:56;;;;;;;;;;;20.40;69.20;;;;;;4184087;28;20328;-84
2023/08/23 08:07:17;;;;;;;;;;;20.50;68.10;;;;;;4190710;28;20482;-85
2023/08/23 08:09:37;;;;;;;;;;;20.50;68.70;;;;;;4186806;28;20354;-85
2023/08/23 08:11:58;;;;;;;;;;;20.50;66.90;;;;;;4188565;28;20537;-85
2023/08/23 08:14:19;;;;;;;;;;;20.60;68.30;;;;;;4185458;28;19920;-85
2023/08/23 08:16:39;;;;;;;;;;;20.60;68.10;;;;;;4189061;28;21302;-84
2023/08/23 08:18:40;;;;;;;;;;;20.50;67.80;;;;;;4185449;28;19923;-86
2023/08/23 08:20:41;;;;;;;;;;;20.60;67.80;;;;;;4184773;28;20631;-85
2023/08/23 08:22:41;;;;;;;;;;;20.60;68.00;;;;;;4187708;28;19946;-86
2023/08/23 08:24:42;;;;;;;;;;;20.60;68.20;;;;;;4186122;28;20294;-85
2023/08/23 08:26:43;;;;;;;;;;;20.60;68.10;;;;;;4191192;28;19917;-85
2023/08/23 08:28:43;;;;;;;;;;;20.70;68.20;;;;;;4184297;28;19916;-85
2023/08/23 08:30:44;;;;;;;;;;;20.70;68.00;;;;;;4186876;28;19913;-84
2023/08/23 08:32:44;;;;;;;;;;;20.80;67.20;;;;;;4188346;28;20007;-84
2023/08/23 08:34:46;;;;;;;;;;;20.80;67.10;;;;;;4184204;28;19916;-85
2023/08/23 08:36:50;;;;;;;;;;;20.80;66.10;;;;;;4181532;28;19927;-86
2023/08/23 08:38:51;;;;;;;;;;;20.70;66.10;;;;;;4178852;28;19941;-86
2023/08/23 08:40:51;;;;;;;;;;;20.80;66.60;;;;;;4191169;28;19944;-85
2023/08/23 08:42:52;;;;;;;;;;;20.90;67.00;;;;;;4180229;28;19991;-85
2023/08/23 08:44:53;;;;;;;;;;;20.90;67.10;;;;;;4186675;28;19913;-84
2023/08/23 08:46:53;;;;;;;;;;;21.00;67.40;;;;;;4186151;28;19917;-84
2023/08/23 08:48:54;;;;;;;;;;;21.00;67.50;;;;;;4191793;28;19916;-85
2023/08/23 08:50:55;;;;;;;;;;;21.00;67.00;;;;;;4211224;28;19900;-84
2023/08/23 08:52:56;;;;;;;;;;;21.00;66.60;;;;;;4207254;28;19972;-85
2023/08/23 08:54:58;;;;;;;;;;;21.10;66.40;;;;;;4209947;28;19908;-84
2023/08/23 08:57:00;;;;;;;;;;;21.10;66.50;;;;;;4201484;28;19990;-85
2023/08/23 08:59:00;;;;;;;;;;;21.20;66.40;;;;;;4185253;28;20028;-85
2023/08/23 09:01:02;;;;;;;;;;;21.20;65.50;;;;;;4187875;28;20387;-85
2023/08/23 09:03:03;;;;;;;;;;;21.20;65.70;;;;;;4184002;28;20004;-86
2023/08/23 09:05:05;;;;;;;;;;;21.20;65.90;;;;;;4187259;28;19916;-85
2023/08/23 09:07:05;;;;;;;;;;;21.20;65.60;;;;;;4186748;28;20618;-85
2023/08/23 09:09:07;;;;;;;;;;;21.20;65.10;;;;;;4186669;28;19913;-84
2023/08/23 09:11:07;;;;;;;;;;;21.20;65.50;;;;;;4187996;28;19957;-84
2023/08/23 09:13:08;;;;;;;;;;;21.20;65.30;;;;;;4189187;28;19917;-84
2023/08/23 09:15:09;;;;;;;;;;;21.20;65.00;;;;;;4185770;28;19916;-85
2023/08/23 09:17:10;;;;;;;;;;;21.20;64.50;;;;;;4202590;28;19916;-86
2023/08/23 09:19:13;;;;;;;;;;;21.20;63.80;;;;;;4186556;28;19921;-85
2023/08/23 09:21:13;;;;;;;;;;;21.20;64.60;;;;;;4186625;28;20294;-84
2023/08/23 09:23:14;;;;;;;;;;;21.20;64.60;;;;;;4184159;28;19913;-84
2023/08/23 09:25:15;;;;;;;;;;;21.10;64.60;;;;;;4180594;28;19928;-84
2023/08/23 09:27:16;;;;;;;;;;;21.00;64.30;;;;;;4180119;28;20033;-85
2023/08/23 09:29:17;;;;;;;;;;;21.00;64.60;;;;;;4169623;28;20538;-84
2023/08/23 09:31:18;;;;;;;;;;;21.00;64.10;;;;;;4169344;28;19964;-84
2023/08/23 09:33:18;;;;;;;;;;;21.00;64.50;;;;;;4183389;28;19921;-84
2023/08/23 09:35:19;;;;;;;;;;;21.00;64.00;;;;;;4182844;28;19928;-84
2023/08/23 09:37:19;;;;;;;;;;;20.90;63.50;;;;;;4186394;28;19923;-84
2023/08/23 09:39:23;;;;;;;;;;;20.90;64.00;;;;;;4183637;28;19962;-84
2023/08/23 09:41:27;;;;;;;;;;;20.80;63.90;;;;;;4173728;28;19923;-85
2023/08/23 09:43:29;;;;;;;;;;;20.80;64.00;;;;;;4177488;28;20015;-85
2023/08/23 09:45:51;;;;;;;;;;;20.70;64.00;;;;;;4184913;28;19966;-84
2023/08/23 09:47:55;;;;;;;;;;;20.70;63.80;;;;;;4186306;28;20446;-85
2023/08/23 09:50:16;;;;;;;;;;;20.60;63.90;;;;;;4182901;28;19947;-86
2023/08/23 09:52:37;;;;;;;;;;;20.60;64.10;;;;;;4183393;28;19916;-85
2023/08/23 09:54:43;;;;;;;;;;;20.50;64.30;;;;;;4185073;28;19920;-85
2023/08/23 09:57:04;;;;;;;;;;;20.50;64.60;;;;;;4180841;28;20436;-85
2023/08/23 09:59:25;;;;;;;;;;;20.40;64.90;;;;;;4180769;28;19939;-86
2023/08/23 10:01:46;;;;;;;;;;;20.40;65.20;;;;;;4183433;28;20509;-84
2023/08/23 10:04:07;;;;;;;;;;;20.40;65.40;;;;;;4184975;28;19941;-86
2023/08/23 10:06:29;;;;;;;;;;;20.40;65.80;;;;;;4185084;28;19982;-86
2023/08/23 10:08:50;;;;;;;;;;;20.40;66.30;;;;;;4184471;28;20241;-85
2023/08/23 10:11:10;;;;;;;;;;;20.40;66.40;;;;;;4187560;28;19921;-85
2023/08/23 10:13:33;;;;;;;;;;;20.50;66.60;;;;;;4182988;28;19926;-84
2023/08/23 10:15:55;;;;;;;;;;;20.40;66.80;;;;;;4182482;28;19912;-86
2023/08/23 10:18:16;;;;;;;;;;;20.40;67.00;;;;;;4185293;28;19927;-84
2023/08/23 10:20:37;;;;;;;;;;;20.50;67.20;;;;;;4200313;28;19909;-85
2023/08/23 10:22:39;;;;;;;;;;;20.50;67.40;;;;;;4194730;28;20007;-86
2023/08/23 10:24:40;;;;;;;;;;;20.50;67.30;;;;;;4185461;28;20368;-85
2023/08/23 10:26:51;;;;;;;;;;;20.60;67.60;;;;;;4182538;28;20370;-85
2023/08/23 10:28:53;;;;;;;;;;;20.60;67.40;;;;;;4183621;28;19912;-85
2023/08/23 10:30:57;;;;;;;;;;;20.60;67.50;;;;;;4199530;28;19916;-84
2023/08/23 10:33:08;;;;;;;;;;;20.70;67.50;;;;;;4181316;28;19991;-84
2023/08/23 10:35:28;;;;;;;;;;;20.70;67.60;;;;;;4183986;28;20180;-85
2023/08/23 10:37:32;;;;;;;;;;;20.70;67.70;;;;;;4183585;28;19924;-86
2023/08/23 10:39:33;;;;;;;;;;;20.80;67.70;;;;;;4186135;28;19919;-86
2023/08/23 10:41:34;;;;;;;;;;;20.90;67.80;;;;;;4186309;28;19920;-86
2023/08/23 10:43:34;;;;;;;;;;;20.90;67.60;;;;;;4180958;28;19909;-85
2023/08/23 10:45:47;;;;;;;;;;;20.90;67.50;;;;;;4185094;28;20248;-85
2023/08/23 10:47:51;;;;;;;;;;;21.00;67.40;;;;;;4181173;28;19980;-85
2023/08/23 10:49:52;;;;;;;;;;;21.00;67.40;;;;;;4187389;28;19920;-84
2023/08/23 10:51:57;;;;;;;;;;;21.00;67.30;;;;;;4183783;28;20364;-85
2023/08/23 10:54:17;;;;;;;;;;;21.10;67.20;;;;;;4188114;28;19920;-85
2023/08/23 10:56:38;;;;;;;;;;;21.10;67.10;;;;;;4184368;28;19972;-85
2023/08/23 10:58:59;;;;;;;;;;;21.20;67.10;;;;;;4182644;28;19967;-84
2023/08/23 11:01:01;;;;;;;;;;;21.20;66.90;;;;;;4196792;28;19913;-86
2023/08/23 11:03:02;;;;;;;;;;;21.30;66.60;;;;;;4182765;28;19943;-85
2023/08/23 11:05:03;;;;;;;;;;;21.30;66.40;;;;;;4181751;28;19935;-85
2023/08/23 11:07:04;;;;;;;;;;;21.30;66.30;;;;;;4182253;28;19952;-85
2023/08/23 11:09:04;;;;;;;;;;;21.30;66.30;;;;;;4181893;28;19920;-86
2023/08/23 11:11:05;;;;;;;;;;;21.30;66.40;;;;;;4184906;28;19912;-86
2023/08/23 11:13:06;;;;;;;;;;;21.30;66.40;;;;;;4192734;28;19924;-84
2023/08/23 11:15:09;;;;;;;;;;;21.30;66.90;;;;;;4186395;28;19909;-85
2023/08/23 11:17:10;;;;;;;;;;;21.30;66.20;;;;;;4192599;28;19917;-84
2023/08/23 11:19:12;;;;;;;;;;;21.40;66.30;;;;;;4185082;28;19917;-84
2023/08/23 11:21:32;;;;;;;;;;;21.40;66.40;;;;;;4181699;28;19909;-85
2023/08/23 11:23:52;;;;;;;;;;;21.50;66.60;;;;;;4184740;28;19916;-84
2023/08/23 11:26:13;;;;;;;;;;;21.50;66.70;;;;;;4184925;28;20148;-84
2023/08/23 11:28:34;;;;;;;;;;;21.50;66.70;;;;;;4184562;28;19917;-85
2023/08/23 11:30:54;;;;;;;;;;;21.60;66.70;;;;;;4185921;28;19928;-85
2023/08/23 11:33:15;;;;;;;;;;;21.60;66.50;;;;;;4181447;28;19943;-86
2023/08/23 11:35:36;;;;;;;;;;;21.60;66.00;;;;;;4186995;28;19927;-85
2023/08/23 11:37:56;;;;;;;;;;;21.60;66.10;;;;;;4182153;28;19913;-85
2023/08/23 11:40:17;;;;;;;;;;;21.60;66.10;;;;;;4185927;28;20339;-85
2023/08/23 11:42:38;;;;;;;;;;;21.60;66.10;;;;;;4181442;28;20007;-85
2023/08/23 11:44:46;;;;;;;;;;;21.70;66.00;;;;;;4194543;28;19920;-85
2023/08/23 11:46:48;;;;;;;;;;;21.70;66.00;;;;;;4183884;28;19990;-84
2023/08/23 11:49:09;;;;;;;;;;;21.70;65.90;;;;;;4184623;28;19920;-87
2023/08/23 11:51:37;;;;;;;;;;;21.60;65.80;;;;;;4180099;28;19917;-85
2023/08/23 11:53:57;;;;;;;;;;;21.60;65.80;;;;;;4185981;28;19965;-86
2023/08/23 11:56:18;;;;;;;;;;;21.50;65.90;;;;;;4187416;28;19909;-84
2023/08/23 11:58:39;;;;;;;;;;;21.50;65.50;;;;;;4193590;28;20046;-85
2023/08/23 12:00:59;;;;;;;;;;;21.40;65.30;;;;;;4188576;28;19935;-85
2023/08/23 12:03:20;;;;;;;;;;;21.20;65.30;;;;;;4183467;28;19916;-86
2023/08/23 12:05:40;;;;;;;;;;;21.20;65.10;;;;;;4189695;28;20523;-84
2023/08/23 12:08:03;;;;;;;;;;;21.00;65.10;;;;;;4189025;28;20074;-86
2023/08/23 12:10:24;;;;;;;;;;;21.00;65.10;;;;;;4190000;28;19958;-84
2023/08/23 12:12:24;;;;;;;;;;;20.90;65.30;;;;;;4191739;28;19966;-83
2023/08/23 12:14:28;;;;;;;;;;;20.80;65.50;;;;;;4193359;28;19924;-85
2023/08/23 12:16:28;;;;;;;;;;;20.70;65.60;;;;;;4193184;28;19917;-84
2023/08/23 12:18:29;;;;;;;;;;;20.70;65.70;;;;;;4193640;28;19917;-84
2023/08/23 12:20:29;;;;;;;;;;;20.60;65.90;;;;;;4204494;28;19928;-84
2023/08/23 12:22:30;;;;;;;;;;;20.60;66.20;;;;;;4193766;28;19913;-83
2023/08/23 12:24:31;;;;;;;;;;;20.50;66.30;;;;;;4194960;28;20167;-83
2023/08/23 12:26:31;;;;;;;;;;;20.50;66.70;;;;;;4189644;28;19917;-84
2023/08/23 12:28:32;;;;;;;;;;;20.40;66.70;;;;;;4197388;28;19913;-86
2023/08/23 12:30:32;;;;;;;;;;;20.40;66.60;;;;;;4192719;28;19995;-84
2023/08/23 12:32:33;;;;;;;;;;;20.40;66.80;;;;;;4195924;28;19927;-84
2023/08/23 12:34:41;;;;;;;;;;;20.40;67.00;;;;;;4198255;28;19928;-84
2023/08/23 12:37:01;;;;;;;;;;;20.30;67.30;;;;;;4195184;28;20209;-84
2023/08/23 12:39:02;;;;;;;;;;;20.30;67.60;;;;;;4195805;28;20417;-84
2023/08/23 12:41:22;;;;;;;;;;;20.30;68.30;;;;;;4195332;28;19912;-84